createdAt,value
2017-12-16T00:02:25.057Z,21.10
2017-12-16T00:04:52.709Z,20.57
2017-12-16T00:07:20.321Z,17.10
2017-12-16T00:09:47.949Z,21.07
2017-12-16T00:12:15.540Z,21.40
2017-12-16T00:14:43.152Z,22.63
2017-12-16T00:17:10.792Z,16.13
2017-12-16T00:19:39.144Z,18.73
2017-12-16T00:22:06.770Z,18.50
2017-12-16T00:24:34.366Z,19.07
2017-12-16T00:27:01.961Z,20.43
2017-12-16T00:29:29.578Z,21.13
2017-12-16T00:31:57.160Z,18.93
2017-12-16T00:34:25.568Z,17.57
2017-12-16T00:36:53.199Z,17.57
2017-12-16T00:39:21.572Z,23.83
2017-12-16T00:41:49.187Z,16.47
2017-12-16T00:44:16.780Z,17.03
2017-12-16T00:46:44.426Z,22.33
2017-12-16T00:49:12.821Z,18.70
2017-12-16T00:51:40.575Z,21.53
2017-12-16T00:54:08.217Z,19.77
2017-12-16T00:56:35.814Z,14.07
2017-12-16T00:59:03.461Z,19.53
2017-12-16T01:01:31.053Z,17.73
2017-12-16T01:03:58.680Z,23.10
2017-12-16T01:06:26.323Z,23.20
2017-12-16T01:08:53.920Z,20.33
2017-12-16T01:11:21.597Z,16.10
2017-12-16T01:13:49.955Z,21.13
2017-12-16T01:16:17.548Z,17.50
2017-12-16T01:18:45.948Z,17.87
2017-12-16T01:21:13.556Z,25.27
2017-12-16T01:23:41.198Z,15.37
2017-12-16T01:26:08.793Z,19.17
2017-12-16T01:28:37.189Z,15.53
2017-12-16T01:31:05.545Z,19.90
2017-12-16T01:33:45.144Z,17.70
2017-12-16T01:39:17.118Z,16.63
2017-12-16T01:41:44.729Z,24.67
2017-12-16T01:44:13.097Z,24.67
2017-12-16T01:46:40.745Z,20.57
2017-12-16T01:49:08.385Z,20.70
2017-12-16T01:51:35.979Z,18.70
2017-12-16T01:54:03.604Z,22.20
2017-12-16T01:56:31.233Z,24.43
2017-12-16T01:58:59.625Z,21.73
2017-12-16T02:01:27.280Z,29.00
2017-12-16T02:03:54.978Z,25.73
2017-12-16T02:06:22.621Z,27.73
2017-12-16T02:08:50.225Z,27.50
2017-12-16T02:11:17.832Z,26.67
2017-12-16T02:13:45.493Z,32.20
2017-12-16T02:16:13.109Z,28.30
2017-12-16T02:18:40.749Z,34.53
2017-12-16T02:21:08.360Z,29.30
2017-12-16T02:23:36.745Z,32.90
2017-12-16T02:26:05.145Z,32.30
2017-12-16T02:28:32.763Z,32.40
2017-12-16T02:31:00.421Z,36.83
2017-12-16T02:33:28.057Z,32.67
2017-12-16T02:35:55.809Z,31.97
2017-12-16T02:38:23.440Z,31.37
2017-12-16T02:40:51.045Z,30.77
2017-12-16T02:43:18.692Z,30.30
2017-12-16T02:45:46.308Z,28.20
2017-12-16T02:48:14.688Z,30.20
2017-12-16T02:50:43.096Z,30.43
2017-12-16T02:53:10.704Z,30.43
2017-12-16T02:55:38.341Z,34.80
2017-12-16T02:58:05.952Z,27.80
2017-12-16T03:00:34.336Z,28.27
2017-12-16T03:03:02.753Z,27.20
2017-12-16T03:05:30.384Z,28.77
2017-12-16T03:07:58.020Z,27.87
2017-12-16T03:10:26.388Z,34.93
2017-12-16T03:12:54.049Z,28.00
2017-12-16T03:15:21.654Z,37.63
2017-12-16T03:17:49.265Z,34.23
2017-12-16T03:20:16.913Z,28.33
2017-12-16T03:22:44.540Z,28.67
2017-12-16T03:25:12.169Z,19.40
2017-12-16T03:27:40.561Z,32.10
2017-12-16T03:30:08.942Z,27.67
2017-12-16T03:32:36.610Z,29.40
2017-12-16T03:35:04.249Z,23.73
2017-12-16T03:37:32.709Z,27.70
2017-12-16T03:40:00.317Z,28.13
2017-12-16T03:42:27.929Z,24.73
2017-12-16T03:44:55.579Z,22.33
2017-12-16T03:47:23.239Z,27.57
2017-12-16T03:49:50.978Z,28.37
2017-12-16T03:52:18.881Z,30.13
2017-12-16T03:54:46.506Z,35.17
2017-12-16T03:57:14.129Z,34.57
2017-12-16T03:59:42.497Z,27.20
2017-12-16T04:02:10.145Z,33.23
2017-12-16T04:04:37.789Z,28.80
2017-12-16T04:07:05.438Z,35.97
2017-12-16T04:09:33.040Z,26.53
2017-12-16T04:12:00.634Z,30.13
2017-12-16T04:14:28.273Z,30.40
2017-12-16T04:16:56.661Z,42.33
2017-12-16T04:19:25.101Z,28.10
2017-12-16T04:21:52.733Z,26.30
2017-12-16T04:24:20.391Z,28.30
2017-12-16T04:26:48.025Z,29.63
2017-12-16T04:29:16.445Z,34.60
2017-12-16T04:31:44.105Z,33.43
2017-12-16T04:34:11.738Z,31.63
2017-12-16T04:36:39.365Z,30.60
2017-12-16T04:39:07.104Z,26.80
2017-12-16T04:41:34.714Z,34.17
2017-12-16T04:44:03.139Z,30.13
2017-12-16T04:46:30.772Z,39.37
2017-12-16T04:48:58.418Z,24.10
2017-12-16T04:51:26.790Z,28.57
2017-12-16T04:53:55.196Z,34.87
2017-12-16T04:56:22.826Z,32.33
2017-12-16T04:58:51.205Z,45.73
2017-12-16T05:01:19.624Z,42.70
2017-12-16T05:03:47.232Z,28.67
2017-12-16T05:06:14.858Z,34.97
2017-12-16T05:08:42.494Z,33.70
2017-12-16T05:11:10.115Z,35.97
2017-12-16T05:13:37.742Z,35.33
2017-12-16T05:16:05.409Z,28.67
2017-12-16T05:18:33.449Z,30.27
2017-12-16T05:21:01.084Z,34.77
2017-12-16T05:23:29.457Z,24.90
2017-12-16T05:25:57.892Z,37.40
2017-12-16T05:28:25.497Z,27.00
2017-12-16T05:30:53.913Z,35.73
2017-12-16T05:33:21.521Z,26.13
2017-12-16T05:35:50.660Z,28.43
2017-12-16T05:38:18.285Z,26.43
2017-12-16T05:40:47.432Z,29.97
2017-12-16T05:43:15.079Z,31.43
2017-12-16T05:45:43.472Z,25.20
2017-12-16T05:48:11.143Z,16.17
2017-12-16T05:50:38.770Z,35.53
2017-12-16T05:53:07.189Z,23.73
2017-12-16T05:55:34.777Z,20.30
2017-12-16T05:58:03.896Z,25.40
2017-12-16T06:00:32.315Z,28.00
2017-12-16T06:02:59.921Z,26.43
2017-12-16T06:05:27.576Z,30.63
2017-12-16T06:07:55.168Z,19.93
2017-12-16T06:10:23.540Z,27.70
2017-12-16T06:12:51.937Z,28.13
2017-12-16T06:15:19.626Z,29.03
2017-12-16T06:17:47.288Z,27.93
2017-12-16T06:20:14.892Z,24.73
2017-12-16T06:22:42.533Z,24.00
2017-12-16T06:25:10.166Z,25.43
2017-12-16T06:27:37.772Z,19.23
2017-12-16T06:30:05.405Z,19.83
2017-12-16T06:32:33.001Z,24.87
2017-12-16T06:35:01.422Z,21.57
2017-12-16T06:37:29.048Z,21.20
2017-12-16T06:39:57.426Z,22.97
2017-12-16T06:42:25.837Z,21.67
2017-12-16T06:44:53.437Z,21.10
2017-12-16T06:47:22.595Z,22.03
2017-12-16T06:49:50.193Z,22.07
2017-12-16T06:52:17.800Z,28.40
2017-12-16T06:54:45.424Z,22.20
2017-12-16T06:57:14.560Z,24.43
2017-12-16T06:59:42.218Z,21.83
2017-12-16T07:02:09.839Z,26.33
2017-12-16T07:04:37.445Z,21.17
2017-12-16T07:07:05.073Z,21.83
2017-12-16T07:09:32.797Z,23.40
2017-12-16T07:12:00.444Z,21.70
2017-12-16T07:14:28.067Z,21.17
2017-12-16T07:16:55.800Z,25.57
2017-12-16T07:19:23.447Z,17.20
2017-12-16T07:21:51.064Z,28.97
2017-12-16T07:24:19.461Z,24.03
2017-12-16T07:26:47.065Z,29.83
2017-12-16T07:29:14.695Z,22.80
2017-12-16T07:31:42.288Z,27.00
2017-12-16T07:34:09.966Z,22.60
2017-12-16T07:36:38.369Z,19.50
2017-12-16T07:39:06.728Z,8.17
2017-12-16T07:41:34.343Z,22.73
2017-12-16T07:44:01.934Z,21.73
2017-12-16T07:46:31.088Z,19.97
2017-12-16T07:48:58.677Z,19.10
2017-12-16T07:51:26.260Z,23.90
2017-12-16T07:53:53.884Z,20.00
2017-12-16T07:56:21.493Z,21.00
2017-12-16T07:58:49.900Z,17.87
2017-12-16T08:01:17.505Z,26.50
2017-12-16T08:03:45.131Z,19.47
2017-12-16T08:06:13.524Z,23.93
2017-12-16T08:08:41.134Z,16.40
2017-12-16T08:11:09.545Z,18.27
2017-12-16T08:13:37.165Z,19.70
2017-12-16T08:16:04.803Z,23.20
2017-12-16T08:18:32.420Z,14.90
2017-12-16T08:21:00.064Z,16.50
2017-12-16T08:23:28.491Z,18.50
2017-12-16T08:25:56.180Z,16.03
2017-12-16T08:28:23.797Z,15.60
2017-12-16T08:30:51.417Z,17.20
2017-12-16T08:33:19.011Z,22.23
2017-12-16T08:35:46.642Z,23.53
2017-12-16T08:38:15.032Z,25.30
2017-12-16T08:40:43.428Z,25.03
2017-12-16T08:43:11.054Z,21.03
2017-12-16T08:45:38.654Z,25.20
2017-12-16T08:48:06.308Z,19.00
2017-12-16T08:50:33.901Z,21.03
2017-12-16T08:53:01.660Z,25.60
2017-12-16T08:55:29.253Z,20.93
2017-12-16T08:57:56.847Z,21.27
2017-12-16T09:00:24.490Z,21.30
2017-12-16T09:02:52.888Z,24.83
2017-12-16T09:05:20.525Z,19.30
2017-12-16T09:07:48.133Z,20.03
2017-12-16T09:10:15.727Z,11.80
2017-12-16T09:12:43.690Z,20.87
2017-12-16T09:15:12.804Z,12.00
2017-12-16T09:17:40.432Z,15.30
2017-12-16T09:20:08.037Z,17.17
2017-12-16T09:22:36.469Z,17.60
2017-12-16T09:25:04.105Z,17.43
2017-12-16T09:27:31.715Z,19.80
2017-12-16T09:29:59.337Z,14.87
2017-12-16T09:32:26.953Z,15.80
2017-12-16T09:34:54.541Z,14.30
2017-12-16T09:37:22.168Z,14.57
2017-12-16T09:39:49.761Z,25.43
2017-12-16T09:42:17.427Z,14.77
2017-12-16T09:44:45.329Z,15.07
2017-12-16T09:47:12.935Z,17.17
2017-12-16T09:49:41.317Z,17.93
2017-12-16T09:52:09.677Z,15.37
2017-12-16T09:54:37.385Z,13.63
2017-12-16T09:57:04.981Z,17.27
2017-12-16T09:59:32.579Z,16.77
2017-12-16T10:02:00.980Z,17.43
2017-12-16T10:04:28.600Z,20.97
2017-12-16T10:06:56.233Z,13.60
2017-12-16T10:09:23.883Z,15.10
2017-12-16T10:11:51.530Z,17.27
2017-12-16T10:14:19.128Z,14.50
2017-12-16T10:16:46.733Z,23.63
2017-12-16T10:19:14.349Z,21.97
2017-12-16T10:21:41.953Z,24.70
2017-12-16T10:24:10.355Z,15.33
2017-12-16T10:26:37.952Z,24.93
2017-12-16T10:29:06.385Z,14.93
2017-12-16T10:31:34.152Z,17.77
2017-12-16T10:34:01.741Z,14.63
2017-12-16T10:36:29.369Z,21.93
2017-12-16T10:38:57.081Z,17.30
2017-12-16T10:41:24.717Z,18.73
2017-12-16T10:43:52.316Z,19.60
2017-12-16T10:46:19.920Z,13.93
2017-12-16T10:48:47.556Z,14.03
2017-12-16T10:51:15.956Z,21.00
2017-12-16T10:53:43.578Z,19.10
2017-12-16T10:56:11.176Z,21.80
2017-12-16T10:58:38.885Z,17.53
2017-12-16T11:01:09.176Z,9.97
2017-12-16T11:03:36.786Z,14.07
2017-12-16T11:06:05.310Z,20.93
2017-12-16T11:08:32.891Z,14.33
2017-12-16T11:11:00.654Z,16.83
2017-12-16T11:13:28.255Z,11.03
2017-12-16T11:15:55.917Z,14.67
2017-12-16T11:18:23.513Z,16.03
2017-12-16T11:20:51.124Z,11.57
2017-12-16T11:23:18.757Z,22.10
2017-12-16T11:25:46.344Z,9.83
2017-12-16T11:28:14.772Z,12.43
2017-12-16T11:30:42.364Z,11.90
2017-12-16T11:33:09.961Z,7.33
2017-12-16T11:35:37.584Z,6.63
2017-12-16T11:38:05.169Z,7.50
2017-12-16T11:40:32.793Z,12.53
2017-12-16T11:43:00.392Z,7.03
2017-12-16T11:45:28.023Z,8.10
2017-12-16T11:47:55.827Z,7.07
2017-12-16T11:50:24.266Z,6.27
2017-12-16T11:52:52.052Z,6.77
2017-12-16T11:55:19.650Z,12.67
2017-12-16T11:57:48.033Z,4.70
2017-12-16T12:00:16.400Z,5.03
2017-12-16T12:02:44.817Z,4.87
2017-12-16T12:05:12.498Z,5.37
2017-12-16T12:07:40.091Z,3.43
2017-12-16T12:10:07.720Z,2.50
2017-12-16T12:12:35.383Z,7.63
2017-12-16T12:15:03.009Z,5.10
2017-12-16T12:17:30.611Z,3.30
2017-12-16T12:19:58.250Z,5.20
2017-12-16T12:22:25.844Z,6.80
2017-12-16T12:24:53.468Z,5.77
2017-12-16T12:27:21.088Z,4.37
2017-12-16T12:29:49.467Z,4.20
2017-12-16T12:32:17.883Z,3.67
2017-12-16T12:34:45.477Z,3.10
2017-12-16T12:37:13.120Z,1.83
2017-12-16T12:39:40.713Z,2.10
2017-12-16T12:42:08.327Z,3.43
2017-12-16T12:44:35.957Z,2.37
2017-12-16T12:47:04.322Z,1.77
2017-12-16T12:49:32.718Z,2.73
2017-12-16T12:52:01.092Z,2.60
2017-12-16T12:54:29.527Z,3.33
2017-12-16T12:56:57.149Z,5.87
2017-12-16T12:59:24.740Z,2.17
2017-12-16T13:01:52.378Z,1.83
2017-12-16T13:04:19.984Z,4.27
2017-12-16T13:06:47.620Z,2.70
2017-12-16T13:09:15.240Z,10.70
2017-12-16T13:11:43.601Z,1.70
2017-12-16T13:14:11.225Z,2.00
2017-12-16T13:16:38.883Z,3.23
2017-12-16T13:19:06.500Z,3.17
2017-12-16T13:21:34.946Z,3.57
2017-12-16T13:24:02.510Z,2.37
2017-12-16T13:26:30.143Z,2.33
2017-12-16T13:28:57.737Z,3.10
2017-12-16T13:31:25.357Z,1.70
2017-12-16T13:33:52.948Z,1.93
2017-12-16T13:36:20.551Z,5.70
2017-12-16T13:38:48.171Z,4.70
2017-12-16T13:41:15.808Z,2.17
2017-12-16T13:43:43.426Z,3.10
2017-12-16T13:46:11.797Z,3.03
2017-12-16T13:48:40.174Z,1.87
2017-12-16T13:51:08.573Z,2.00
2017-12-16T13:53:36.176Z,4.80
2017-12-16T13:56:03.809Z,3.17
2017-12-16T13:58:31.422Z,2.50
2017-12-16T14:00:59.013Z,2.13
2017-12-16T14:03:26.712Z,5.33
2017-12-16T14:05:54.906Z,3.07
2017-12-16T14:08:22.528Z,1.10
2017-12-16T14:10:50.110Z,2.47
2017-12-16T14:13:17.732Z,1.30
2017-12-16T14:15:45.324Z,2.07
2017-12-16T14:18:12.919Z,2.60
2017-12-16T14:20:40.553Z,4.23
2017-12-16T14:23:08.150Z,5.53
2017-12-16T14:25:35.788Z,4.53
2017-12-16T14:28:03.401Z,4.47
2017-12-16T14:30:31.038Z,2.43
2017-12-16T14:32:59.453Z,3.60
2017-12-16T14:35:27.057Z,2.87
2017-12-16T14:37:54.805Z,1.60
2017-12-16T14:40:22.409Z,3.37
2017-12-16T14:42:50.817Z,2.83
2017-12-16T14:45:18.424Z,4.80
2017-12-16T14:47:46.053Z,4.40
2017-12-16T14:50:13.645Z,3.87
2017-12-16T14:52:42.013Z,4.97
2017-12-16T14:55:09.640Z,2.23
2017-12-16T14:57:37.300Z,1.90
2017-12-16T15:00:04.928Z,3.23
2017-12-16T15:02:33.297Z,1.80
2017-12-16T15:05:00.897Z,7.40
2017-12-16T15:07:28.518Z,2.53
2017-12-16T15:09:56.116Z,3.13
2017-12-16T15:12:23.746Z,4.13
2017-12-16T15:14:51.360Z,2.13
2017-12-16T15:17:18.952Z,2.30
2017-12-16T15:19:46.572Z,3.90
2017-12-16T15:22:14.166Z,2.10
2017-12-16T15:24:41.869Z,6.37
2017-12-16T15:27:09.464Z,4.97
2017-12-16T15:29:37.056Z,4.03
2017-12-16T15:32:04.691Z,4.00
2017-12-16T15:34:32.278Z,2.20
2017-12-16T15:36:59.917Z,2.80
2017-12-16T15:39:27.569Z,3.80
2017-12-16T15:41:55.205Z,6.53
2017-12-16T15:44:22.825Z,2.83
2017-12-16T15:46:50.438Z,5.37
2017-12-16T15:49:18.060Z,7.77
2017-12-16T15:51:46.429Z,5.23
2017-12-16T15:54:14.050Z,4.10
2017-12-16T15:56:41.640Z,2.10
2017-12-16T15:59:09.241Z,3.50
2017-12-16T16:01:36.877Z,5.20
2017-12-16T16:04:06.031Z,3.73
2017-12-16T16:06:33.681Z,2.97
2017-12-16T16:09:01.293Z,2.60
2017-12-16T16:11:28.928Z,2.10
2017-12-16T16:13:56.533Z,2.20
2017-12-16T16:16:24.888Z,2.87
2017-12-16T16:18:54.078Z,5.03
2017-12-16T16:21:21.681Z,3.33
2017-12-16T16:23:49.345Z,4.20
2017-12-16T16:26:16.972Z,3.30
2017-12-16T16:28:44.565Z,3.50
2017-12-16T16:31:12.944Z,4.47
2017-12-16T16:33:40.535Z,6.50
2017-12-16T16:36:08.156Z,3.10
2017-12-16T16:38:36.529Z,7.30
2017-12-16T16:41:04.938Z,3.53
2017-12-16T16:43:32.541Z,4.97
2017-12-16T16:46:00.130Z,3.73
2017-12-16T16:48:28.530Z,3.30
2017-12-16T16:50:56.171Z,4.07
2017-12-16T16:53:24.565Z,2.23
2017-12-16T16:55:52.275Z,2.43
2017-12-16T16:58:21.735Z,3.10
2017-12-16T17:00:50.564Z,4.27
2017-12-16T17:03:18.436Z,5.63
2017-12-16T17:05:46.409Z,2.70
2017-12-16T17:08:14.268Z,4.63
2017-12-16T17:10:42.243Z,8.73
2017-12-16T17:13:10.107Z,2.80
2017-12-16T17:15:38.079Z,5.73
2017-12-16T17:18:06.047Z,2.83
2017-12-16T17:20:33.913Z,6.43
2017-12-16T17:23:01.881Z,4.00
2017-12-16T17:25:29.744Z,3.63
2017-12-16T17:27:57.712Z,4.67
2017-12-16T17:30:25.578Z,4.37
2017-12-16T17:32:53.457Z,5.27
2017-12-16T17:35:21.624Z,4.70
2017-12-16T17:37:49.592Z,9.20
2017-12-16T17:40:17.564Z,8.87
2017-12-16T17:42:45.443Z,6.20
2017-12-16T17:45:13.307Z,8.10
2017-12-16T17:47:41.163Z,10.23
2017-12-16T17:50:09.347Z,8.57
2017-12-16T17:52:38.076Z,6.97
2017-12-16T17:55:05.994Z,4.50
2017-12-16T17:57:34.012Z,6.07
2017-12-16T18:00:01.927Z,5.10
2017-12-16T18:02:29.796Z,8.63
2017-12-16T18:04:57.866Z,17.20
2017-12-16T18:07:25.746Z,5.47
2017-12-16T18:09:53.710Z,4.90
2017-12-16T18:12:21.673Z,6.43
2017-12-16T18:14:49.641Z,4.37
2017-12-16T18:17:17.509Z,11.03
2017-12-16T18:22:19.387Z,6.60
2017-12-16T18:24:47.353Z,4.27
2017-12-16T18:27:15.222Z,5.27
2017-12-16T18:29:43.090Z,9.43
2017-12-16T18:32:10.904Z,6.50
2017-12-16T18:34:38.776Z,3.73
2017-12-16T18:37:06.684Z,2.47
2017-12-16T18:39:34.559Z,3.03
2017-12-16T18:42:02.419Z,4.47
2017-12-16T18:44:30.389Z,2.23
2017-12-16T18:46:58.208Z,8.20
2017-12-16T18:49:26.014Z,9.23
2017-12-16T18:51:53.624Z,4.00
2017-12-16T18:54:21.996Z,6.53
2017-12-16T18:56:50.390Z,6.20
2017-12-16T18:59:17.988Z,4.67
2017-12-16T19:01:45.624Z,4.90
2017-12-16T19:04:13.231Z,3.60
2017-12-16T19:06:41.587Z,6.13
2017-12-16T19:09:09.206Z,3.97
2017-12-16T19:11:37.565Z,6.97
2017-12-16T19:14:05.230Z,7.73
2017-12-16T19:16:33.664Z,5.07
2017-12-16T19:19:01.281Z,6.60
2017-12-16T19:21:29.983Z,7.40
2017-12-16T19:23:57.895Z,5.73
2017-12-16T19:26:25.969Z,6.17
2017-12-16T19:28:53.946Z,6.43
2017-12-16T19:31:21.902Z,11.83
2017-12-16T19:33:49.877Z,10.93
2017-12-16T19:36:17.740Z,6.73
2017-12-16T19:38:45.659Z,8.30
2017-12-16T19:41:13.575Z,7.10
2017-12-16T19:43:41.449Z,5.30
2017-12-16T19:46:09.420Z,3.73
2017-12-16T19:48:38.124Z,4.73
2017-12-16T19:51:06.885Z,4.53
2017-12-16T19:53:34.755Z,3.17
2017-12-16T19:56:02.617Z,2.93
2017-12-16T19:58:30.488Z,3.80
2017-12-16T20:00:58.352Z,4.30
2017-12-16T20:03:26.317Z,5.33
2017-12-16T20:05:54.188Z,5.83
2017-12-16T20:08:22.057Z,6.03
2017-12-16T20:10:49.930Z,3.03
2017-12-16T20:13:17.886Z,4.40
2017-12-16T20:15:45.780Z,3.00
2017-12-16T20:18:15.162Z,2.77
2017-12-16T20:20:43.037Z,4.10
2017-12-16T20:23:11.619Z,2.57
2017-12-16T20:25:39.247Z,3.23
2017-12-16T20:28:06.864Z,3.63
2017-12-16T20:30:35.221Z,3.63
2017-12-16T20:33:04.345Z,2.93
2017-12-16T20:35:32.705Z,2.60
2017-12-16T20:38:00.374Z,1.87
2017-12-16T20:40:29.752Z,3.27
2017-12-16T20:42:57.724Z,3.83
2017-12-16T20:45:25.688Z,2.20
2017-12-16T20:47:53.655Z,2.73
2017-12-16T20:50:21.583Z,2.67
2017-12-16T20:52:49.447Z,2.93
2017-12-16T20:55:17.359Z,2.97
2017-12-16T20:57:45.231Z,1.90
2017-12-16T21:00:17.295Z,2.20
2017-12-16T21:02:45.360Z,3.50
2017-12-16T21:05:13.186Z,2.20
2017-12-16T21:07:40.996Z,3.70
2017-12-16T21:10:08.813Z,2.30
2017-12-16T21:12:36.734Z,4.37
2017-12-16T21:15:04.554Z,10.43
2017-12-16T21:17:32.355Z,2.70
2017-12-16T21:20:00.225Z,4.30
2017-12-16T21:22:28.089Z,2.97
2017-12-16T21:24:55.957Z,3.30
2017-12-16T21:27:24.606Z,3.37
2017-12-16T21:29:53.234Z,1.93
2017-12-16T21:32:21.098Z,3.20
2017-12-16T21:34:48.960Z,4.00
2017-12-16T21:37:16.823Z,2.60
2017-12-16T21:39:44.701Z,6.67
2017-12-16T21:42:14.082Z,5.30
2017-12-16T21:44:41.709Z,2.50
2017-12-16T21:47:09.363Z,4.47
2017-12-16T21:49:38.109Z,3.17
2017-12-16T21:52:05.976Z,2.27
2017-12-16T21:54:33.905Z,1.60
2017-12-16T21:57:01.813Z,2.13
2017-12-16T21:59:29.782Z,2.00
2017-12-16T22:01:57.651Z,2.10
2017-12-16T22:04:27.054Z,1.50
2017-12-16T22:06:55.016Z,1.60
2017-12-16T22:09:22.885Z,1.57
2017-12-16T22:11:50.701Z,1.50
2017-12-16T22:14:18.613Z,1.50
2017-12-16T22:16:46.482Z,1.80
2017-12-16T22:19:14.457Z,1.50
2017-12-16T22:21:42.314Z,1.63
2017-12-16T22:24:10.189Z,2.00
2017-12-16T22:26:38.050Z,1.93
2017-12-16T22:29:05.661Z,1.63
2017-12-16T22:31:34.057Z,2.13
2017-12-16T22:34:01.649Z,3.27
2017-12-16T22:36:29.276Z,2.10
2017-12-16T22:38:56.860Z,2.93
2017-12-16T22:41:24.505Z,7.20
2017-12-16T22:43:52.188Z,2.83
2017-12-16T22:46:19.760Z,3.07
2017-12-16T22:48:47.404Z,3.13
2017-12-16T22:51:15.005Z,3.07
2017-12-16T22:53:42.589Z,3.10
2017-12-16T22:56:11.051Z,4.93
2017-12-16T22:58:38.629Z,5.93
2017-12-16T23:01:06.257Z,4.63
2017-12-16T23:03:34.628Z,3.23
2017-12-16T23:06:02.373Z,5.30
2017-12-16T23:08:30.037Z,3.70
2017-12-16T23:10:57.678Z,4.40
2017-12-16T23:13:25.329Z,4.43
2017-12-16T23:15:52.941Z,3.57
2017-12-16T23:18:20.562Z,1.70
2017-12-16T23:20:48.164Z,2.93
2017-12-16T23:23:15.827Z,2.70
2017-12-16T23:25:44.230Z,2.83
2017-12-16T23:28:12.633Z,2.53
2017-12-16T23:30:40.262Z,6.33
2017-12-16T23:33:08.655Z,2.70
2017-12-16T23:35:37.073Z,2.47
2017-12-16T23:38:04.682Z,5.07
2017-12-16T23:40:33.052Z,1.23
2017-12-16T23:43:00.677Z,2.93
2017-12-16T23:45:28.296Z,2.37
2017-12-16T23:47:56.704Z,1.40
2017-12-16T23:50:24.306Z,2.90
2017-12-16T23:55:25.901Z,3.67
2017-12-16T23:57:54.343Z,2.23
